Time;durP1;ratioP1;P1;durP2;ratioP2;P2;SDS_P1;SDS_P2;PMS_P1;PMS_P2;Temp;Humidity;BMP_temperature;BMP_pressure;BME280_temperature;BME280_humidity;BME280_pressure;Samples;Min_cycle;Max_cycle;Signal;HPM_P1;HPM_P2
2022/08/11 00:00:34;;;;;;;3.50;2.20;;;18.90;54.50;;;;;;5010783;28;20481;-62
2022/08/11 00:03:06;;;;;;;3.60;2.07;;;18.80;54.50;;;;;;5014042;28;20524;-62
2022/08/11 00:05:43;;;;;;;2.50;2.30;;;18.80;54.70;;;;;;5012434;28;20520;-61
2022/08/11 00:08:11;;;;;;;5.20;2.20;;;18.80;54.80;;;;;;5012490;28;20549;-62
2022/08/11 00:10:40;;;;;;;2.80;2.20;;;18.80;55.00;;;;;;5012433;28;20553;-60
2022/08/11 00:13:09;;;;;;;6.77;2.20;;;18.70;55.00;;;;;;5013483;28;20472;-61
2022/08/11 00:15:42;;;;;;;2.40;2.07;;;18.70;55.10;;;;;;5012600;28;20517;-62
2022/08/11 00:18:10;;;;;;;2.93;2.13;;;18.70;55.20;;;;;;5012658;28;20555;-62
2022/08/11 00:20:42;;;;;;;4.10;2.30;;;18.70;55.30;;;;;;5012548;28;20553;-63
2022/08/11 00:23:11;;;;;;;2.37;2.07;;;18.60;55.40;;;;;;5011971;28;20520;-61
2022/08/11 00:25:40;;;;;;;2.80;2.23;;;18.60;55.50;;;;;;5010456;28;20909;-62
2022/08/11 00:28:30;;;;;;;3.70;2.37;;;18.60;55.60;;;;;;5016739;28;20466;-62
2022/08/11 00:31:00;;;;;;;3.77;2.23;;;18.50;55.70;;;;;;5015255;28;20472;-63
2022/08/11 00:33:37;;;;;;;3.43;2.03;;;18.50;55.90;;;;;;5016744;28;20560;-62
2022/08/11 00:36:06;;;;;;;3.77;2.40;;;18.50;56.10;;;;;;5014591;28;20552;-63
2022/08/11 00:38:37;;;;;;;3.97;2.10;;;18.50;56.30;;;;;;5016806;28;20477;-62
2022/08/11 00:41:31;;;;;;;2.53;2.20;;;18.50;56.40;;;;;;5016216;28;20966;-62
2022/08/11 00:44:25;;;;;;;6.50;2.77;;;18.50;56.70;;;;;;5002728;28;20489;-63
2022/08/11 00:47:03;;;;;;;3.23;2.10;;;18.40;56.70;;;;;;5013598;28;20544;-62
2022/08/11 00:49:39;;;;;;;3.90;2.53;;;18.40;56.80;;;;;;5015177;28;20457;-62
2022/08/11 00:52:17;;;;;;;4.43;3.00;;;18.30;57.00;;;;;;5016492;28;20862;-61
2022/08/11 00:55:17;;;;;;;3.30;2.40;;;18.30;57.40;;;;;;5015931;28;21043;-62
2022/08/11 00:58:17;;;;;;;4.63;2.40;;;18.20;57.70;;;;;;5016577;28;20430;-62
2022/08/11 01:01:05;;;;;;;2.30;2.00;;;18.20;58.20;;;;;;4984581;28;20457;-62
2022/08/11 01:03:54;;;;;;;2.80;2.50;;;18.10;58.30;;;;;;5013742;28;20509;-62
2022/08/11 01:06:55;;;;;;;2.17;1.97;;;18.10;59.00;;;;;;5015391;28;20569;-62
2022/08/11 01:09:37;;;;;;;3.20;2.50;;;18.10;58.60;;;;;;4981030;28;20968;-62
2022/08/11 01:12:32;;;;;;;6.67;2.10;;;18.10;58.70;;;;;;5015706;28;20560;-62
2022/08/11 01:15:35;;;;;;;2.73;2.27;;;18.10;59.00;;;;;;5014636;28;20883;-61
2022/08/11 01:18:45;;;;;;;4.33;2.50;;;18.00;59.30;;;;;;5015337;28;20425;-63
2022/08/11 01:21:56;;;;;;;3.00;2.13;;;17.90;59.60;;;;;;5000272;28;20457;-62
2022/08/11 01:25:03;;;;;;;3.47;2.30;;;17.90;59.90;;;;;;5015315;28;20485;-62
2022/08/11 01:28:06;;;;;;;2.57;2.33;;;17.80;60.20;;;;;;5002839;28;20540;-62
2022/08/11 01:31:08;;;;;;;2.43;2.23;;;17.80;60.70;;;;;;5013346;28;20464;-63
2022/08/11 01:34:10;;;;;;;2.50;2.00;;;17.70;61.10;;;;;;5003387;28;20957;-62
2022/08/11 01:37:06;;;;;;;2.37;2.17;;;17.70;61.60;;;;;;5014683;28;20560;-61
2022/08/11 01:40:09;;;;;;;2.17;1.97;;;17.70;62.00;;;;;;5014148;28;20550;-61
2022/08/11 01:46:07;;;;;;;2.47;2.23;;;17.50;62.90;;;;;;5013309;28;20536;-61
2022/08/11 01:48:43;;;;;;;2.10;1.90;;;17.50;63.50;;;;;;5014805;28;20540;-62
2022/08/11 01:51:24;;;;;;;3.30;2.37;;;17.40;63.80;;;;;;5014619;28;21095;-61
2022/08/11 01:54:05;;;;;;;4.93;2.40;;;17.30;64.20;;;;;;5013801;28;20468;-63
2022/08/11 01:56:46;;;;;;;3.50;2.10;;;17.30;65.40;;;;;;5008396;28;20592;-63
2022/08/11 01:59:19;;;;;;;2.70;2.03;;;17.30;65.30;;;;;;5013440;28;20481;-63
2022/08/11 02:02:05;;;;;;;3.93;2.70;;;17.20;65.90;;;;;;5014537;28;20486;-63
2022/08/11 02:04:38;;;;;;;3.30;2.60;;;17.20;66.50;;;;;;5014628;28;20545;-63
2022/08/11 02:07:17;;;;;;;2.53;2.20;;;17.20;67.00;;;;;;5014800;28;20458;-63
2022/08/11 02:13:00;;;;;;;4.80;2.83;;;17.10;68.10;;;;;;5014611;28;20454;-63
2022/08/11 02:15:35;;;;;;;4.30;2.70;;;17.00;68.70;;;;;;5013653;28;20553;-62
2022/08/11 02:18:09;;;;;;;3.17;2.77;;;17.00;69.30;;;;;;5013239;28;21067;-62
2022/08/11 02:23:39;;;;;;;2.47;2.27;;;16.90;70.50;;;;;;5011920;28;20492;-64
2022/08/11 02:26:16;;;;;;;4.40;2.73;;;16.80;71.20;;;;;;5012165;28;20454;-63
2022/08/11 02:28:58;;;;;;;2.90;2.60;;;16.90;72.00;;;;;;5014020;28;20515;-63
2022/08/11 02:34:38;;;;;;;3.33;2.60;;;16.80;73.10;;;;;;5013248;28;20985;-64
2022/08/11 02:37:16;;;;;;;3.10;2.80;;;16.70;73.70;;;;;;4995657;28;20526;-64
2022/08/11 02:40:00;;;;;;;3.30;2.60;;;16.70;74.20;;;;;;5020345;28;20577;-62
2022/08/11 02:42:35;;;;;;;5.27;2.70;;;16.70;74.90;;;;;;5027328;28;20478;-64
2022/08/11 02:45:18;;;;;;;3.37;2.40;;;16.60;75.40;;;;;;5023707;28;20957;-63
2022/08/11 02:50:49;;;;;;;2.80;2.50;;;16.60;76.60;;;;;;5023746;28;20577;-63
2022/08/11 02:53:30;;;;;;;3.87;3.13;;;16.50;77.20;;;;;;5017403;28;20549;-64
2022/08/11 02:56:07;;;;;;;3.43;2.80;;;16.50;77.60;;;;;;5018993;28;20478;-63
2022/08/11 02:58:41;;;;;;;3.30;2.80;;;16.50;78.10;;;;;;5014166;28;20976;-63
2022/08/11 03:01:17;;;;;;;6.37;2.73;;;16.50;78.50;;;;;;5015378;28;20904;-62
2022/08/11 03:03:53;;;;;;;7.13;2.40;;;16.40;78.90;;;;;;5016050;28;20468;-64
2022/08/11 03:06:31;;;;;;;3.77;2.30;;;16.40;79.30;;;;;;5006188;28;20453;-63
2022/08/11 03:09:05;;;;;;;2.70;2.50;;;16.40;79.70;;;;;;5014892;28;20434;-63
2022/08/11 03:17:33;;;;;;;3.93;3.00;;;16.30;80.90;;;;;;5016350;28;20497;-63
2022/08/11 03:20:15;;;;;;;3.93;2.70;;;16.20;81.40;;;;;;5015116;28;20607;-63
2022/08/11 03:22:54;;;;;;;4.13;2.57;;;16.20;81.70;;;;;;5015227;28;20489;-63
2022/08/11 03:25:30;;;;;;;2.77;2.57;;;16.10;82.00;;;;;;5014126;28;20544;-63
2022/08/11 03:28:04;;;;;;;4.07;2.50;;;16.10;82.40;;;;;;5011715;28;20461;-63
2022/08/11 03:30:42;;;;;;;2.80;2.60;;;16.10;82.50;;;;;;5013709;28;20516;-63
2022/08/11 03:36:15;;;;;;;2.80;2.60;;;16.10;83.10;;;;;;5002015;28;20985;-63
2022/08/11 03:38:59;;;;;;;4.90;2.60;;;16.10;83.40;;;;;;5012801;28;20769;-63
2022/08/11 03:41:43;;;;;;;3.13;2.83;;;16.00;83.50;;;;;;5011996;28;21042;-63
2022/08/11 03:44:23;;;;;;;4.90;2.93;;;16.00;83.90;;;;;;5013099;28;20796;-63
2022/08/11 03:47:12;;;;;;;2.57;2.37;;;16.00;84.40;;;;;;5012351;28;20873;-63
2022/08/11 03:49:54;;;;;;;3.10;2.27;;;16.00;84.60;;;;;;5007225;28;21005;-63
2022/08/11 03:52:29;;;;;;;2.67;2.40;;;16.00;84.70;;;;;;5011885;28;20465;-63
2022/08/11 03:55:09;;;;;;;3.63;2.80;;;16.00;84.80;;;;;;5002976;28;20504;-63
2022/08/11 03:58:14;;;;;;;3.00;2.53;;;15.90;85.00;;;;;;5012559;28;20472;-63
2022/08/11 04:01:27;;;;;;;3.00;2.70;;;15.90;85.30;;;;;;5011036;28;20511;-63
2022/08/11 04:04:24;;;;;;;3.80;2.70;;;15.90;85.60;;;;;;5006563;28;20465;-63
2022/08/11 04:10:37;;;;;;;6.50;2.87;;;15.90;85.50;;;;;;5079521;27;20985;-62
2022/08/11 04:13:38;;;;;;;5.63;3.37;;;15.90;85.70;;;;;;5069635;28;20463;-63
2022/08/11 04:16:23;;;;;;;3.80;2.70;;;16.00;86.10;;;;;;5069205;28;20465;-62
2022/08/11 04:19:28;;;;;;;3.33;3.03;;;16.00;85.90;;;;;;5067664;28;20450;-63
2022/08/11 04:22:31;;;;;;;3.80;3.40;;;16.10;85.70;;;;;;5069828;28;20987;-63
2022/08/11 04:25:29;;;;;;;3.07;2.67;;;16.10;85.70;;;;;;5068852;28;21002;-62
2022/08/11 04:28:50;;;;;;;3.77;3.40;;;16.20;85.70;;;;;;5068145;28;20467;-63
2022/08/11 04:31:33;;;;;;;5.07;3.27;;;16.40;85.80;;;;;;5061439;28;20473;-64
2022/08/11 04:34:17;;;;;;;5.37;2.87;;;16.80;85.20;;;;;;5064407;28;20534;-64
2022/08/11 04:40:32;;;;;;;6.40;3.40;;;17.60;81.80;;;;;;5068989;28;20443;-62
2022/08/11 04:43:45;;;;;;;5.60;3.47;;;18.10;79.40;;;;;;5068302;28;20521;-63
2022/08/11 04:46:27;;;;;;;3.87;2.77;;;18.40;77.00;;;;;;5012479;28;20461;-63
2022/08/11 05:02:00;;;;;;;3.40;3.10;;;19.80;68.60;;;;;;5069206;28;20439;-63
2022/08/11 05:08:24;;;;;;;3.40;2.53;;;20.10;66.00;;;;;;5049409;28;20403;-63
2022/08/11 05:11:27;;;;;;;4.43;2.57;;;20.30;64.70;;;;;;5064080;28;20482;-62
2022/08/11 05:37:04;;;;;;;5.27;2.93;;;21.20;59.50;;;;;;5048899;28;20453;-65
2022/08/11 05:56:34;;;;;;;6.97;2.93;;;20.40;59.50;;;;;;5042204;28;20426;-62
2022/08/11 05:59:02;;;;;;;7.90;3.37;;;20.50;59.60;;;;;;5036224;28;20447;-63
2022/08/11 06:01:33;;;;;;;7.20;3.80;;;20.50;59.60;;;;;;5035500;28;20473;-64
2022/08/11 06:04:15;;;;;;;8.63;3.60;;;20.50;59.60;;;;;;5052616;28;20477;-63
2022/08/11 06:06:51;;;;;;;5.17;3.53;;;20.50;59.50;;;;;;5052343;28;20467;-63
2022/08/11 06:09:25;;;;;;;5.40;3.80;;;20.40;59.40;;;;;;5054215;28;20490;-63
2022/08/11 06:11:53;;;;;;;4.37;3.07;;;20.30;59.50;;;;;;5034659;28;20488;-63
2022/08/11 06:14:22;;;;;;;4.00;3.30;;;20.10;59.60;;;;;;5034197;28;20458;-63
2022/08/11 06:16:53;;;;;;;5.70;3.30;;;20.10;59.70;;;;;;5043377;28;20463;-64
2022/08/11 06:19:23;;;;;;;5.77;2.97;;;20.00;59.70;;;;;;5054019;28;20457;-62
2022/08/11 06:21:53;;;;;;;4.50;2.90;;;20.10;59.70;;;;;;5054008;28;21032;-64
2022/08/11 06:24:20;;;;;;;3.63;3.30;;;20.10;59.60;;;;;;5055235;28;20442;-62
2022/08/11 06:26:50;;;;;;;5.63;2.90;;;20.10;59.60;;;;;;5054192;28;20550;-63
2022/08/11 06:29:18;;;;;;;3.80;3.10;;;20.10;59.60;;;;;;5052423;28;20475;-64
2022/08/11 06:31:53;;;;;;;3.30;3.00;;;20.10;59.50;;;;;;5053221;28;20492;-63
2022/08/11 06:34:32;;;;;;;6.80;3.50;;;20.20;59.50;;;;;;5044924;28;20550;-63
2022/08/11 06:37:17;;;;;;;8.03;3.33;;;20.30;59.40;;;;;;5034586;28;20425;-65
2022/08/11 06:39:51;;;;;;;7.63;3.27;;;20.40;59.20;;;;;;5035026;28;20925;-63
2022/08/11 06:42:36;;;;;;;5.10;3.17;;;20.50;59.00;;;;;;5047119;28;20491;-63
2022/08/11 06:45:13;;;;;;;3.10;2.80;;;20.60;59.00;;;;;;5045479;28;20544;-60
2022/08/11 06:47:47;;;;;;;5.17;3.40;;;20.70;58.90;;;;;;5049747;28;20467;-63
2022/08/11 06:53:08;;;;;;;8.63;3.03;;;20.80;58.60;;;;;;5056130;28;20812;-63
2022/08/11 07:01:23;;;;;;;3.60;3.03;;;21.20;58.10;;;;;;5054385;28;20888;-63
2022/08/11 07:04:03;;;;;;;4.07;2.50;;;21.30;57.70;;;;;;5054161;28;20438;-62
2022/08/11 07:15:40;;;;;;;3.97;2.83;;;21.30;57.50;;;;;;5055237;28;20428;-63
2022/08/11 07:15:44;;;;;;;3.93;2.90;;;21.70;57.10;;;;;;5054997;28;20405;-63
2022/08/11 07:29:38;;;;;;;3.83;2.50;;;22.40;55.80;;;;;;5054210;28;21053;-62
2022/08/11 07:32:25;;;;;;;4.40;3.00;;;22.40;55.60;;;;;;5055699;28;20842;-63
2022/08/11 07:34:59;;;;;;;4.67;3.00;;;22.50;55.70;;;;;;5053897;28;20426;-62
2022/08/11 07:37:30;;;;;;;5.30;4.60;;;22.70;55.40;;;;;;5053733;28;20454;-63
2022/08/11 07:39:59;;;;;;;4.83;2.57;;;22.80;55.00;;;;;;5053239;28;20934;-63
2022/08/11 07:42:34;;;;;;;3.87;2.90;;;23.00;54.70;;;;;;5053073;28;21069;-62
2022/08/11 07:53:22;;;;;;;3.67;3.03;;;23.60;53.00;;;;;;5053960;28;20862;-61
2022/08/11 07:55:49;;;;;;;5.87;3.60;;;23.70;52.50;;;;;;5053775;28;20468;-62
2022/08/11 08:17:56;;;;;;;3.97;2.60;;;24.60;50.40;;;;;;5052201;28;20463;-63
2022/08/11 08:20:26;;;;;;;4.70;3.27;;;24.70;50.10;;;;;;5050560;28;20494;-63
2022/08/11 08:22:56;;;;;;;5.00;3.03;;;24.70;50.00;;;;;;5047612;28;20572;-62
2022/08/11 08:25:25;;;;;;;5.50;3.10;;;24.80;49.90;;;;;;5052551;28;20456;-64
2022/08/11 08:27:55;;;;;;;5.27;3.70;;;24.90;49.80;;;;;;5052447;28;20456;-64
2022/08/11 08:33:13;;;;;;;5.83;3.27;;;25.20;49.40;;;;;;5051590;28;20478;-65
2022/08/11 08:35:43;;;;;;;7.40;3.20;;;25.50;48.90;;;;;;5052685;28;20557;-63
2022/08/11 08:38:10;;;;;;;5.23;3.03;;;25.60;48.40;;;;;;5052598;28;20999;-64
2022/08/11 08:40:40;;;;;;;5.20;3.10;;;25.70;48.20;;;;;;5052662;28;20647;-64
2022/08/11 08:43:14;;;;;;;7.07;3.10;;;25.90;48.00;;;;;;5038595;28;20962;-65
2022/08/11 08:45:43;;;;;;;5.03;3.27;;;26.00;47.70;;;;;;5045942;28;20559;-64
2022/08/11 08:48:15;;;;;;;4.37;3.37;;;26.10;47.70;;;;;;5053206;28;20479;-65
2022/08/11 08:53:39;;;;;;;4.87;3.17;;;26.40;46.00;;;;;;5052439;28;20502;-64
2022/08/11 08:56:09;;;;;;;7.03;3.40;;;26.50;45.70;;;;;;5053773;28;20516;-61
2022/08/11 08:58:38;;;;;;;4.40;2.80;;;26.70;45.30;;;;;;5038583;28;20466;-64
2022/08/11 09:01:09;;;;;;;5.63;2.80;;;26.80;44.70;;;;;;5050216;28;20549;-64
2022/08/11 09:03:38;;;;;;;4.30;3.00;;;26.80;44.20;;;;;;5055568;28;20996;-63
2022/08/11 09:06:05;;;;;;;2.97;2.60;;;26.90;43.80;;;;;;5056376;28;20474;-63
2022/08/11 09:08:35;;;;;;;3.60;2.67;;;27.00;43.20;;;;;;5056084;28;20494;-63
2022/08/11 09:13:49;;;;;;;5.07;2.73;;;27.20;42.70;;;;;;5056417;28;20906;-62
2022/08/11 09:16:18;;;;;;;4.30;2.33;;;27.30;42.40;;;;;;5055579;28;20456;-63
2022/08/11 09:18:46;;;;;;;3.30;3.00;;;27.40;42.00;;;;;;5056070;28;20454;-64
2022/08/11 09:21:15;;;;;;;4.33;2.40;;;27.60;41.30;;;;;;5055807;28;20478;-65
2022/08/11 09:29:29;;;;;;;3.50;2.30;;;27.90;39.30;;;;;;4973586;28;20564;-63
2022/08/11 09:31:59;;;;;;;2.40;2.00;;;28.10;37.60;;;;;;4974787;28;20505;-65
2022/08/11 09:34:28;;;;;;;3.77;2.00;;;28.30;36.90;;;;;;5003228;28;20972;-64
2022/08/11 09:44:45;;;;;;;3.97;2.30;;;28.60;35.80;;;;;;5057349;28;20519;-63
2022/08/11 09:45:15;;;;;;;3.90;2.77;;;28.70;35.10;;;;;;5057151;28;20462;-65
2022/08/11 09:47:44;;;;;;;3.00;2.27;;;28.70;35.10;;;;;;5055990;28;20515;-65
2022/08/11 09:50:15;;;;;;;5.40;3.07;;;28.80;35.40;;;;;;5056703;28;20519;-64
2022/08/11 09:52:47;;;;;;;4.43;2.13;;;28.80;35.50;;;;;;5056452;28;20469;-64
2022/08/11 09:55:15;;;;;;;2.07;1.90;;;28.90;35.40;;;;;;5056497;28;20433;-65
2022/08/11 10:00:36;;;;;;;3.53;2.07;;;29.10;34.10;;;;;;5060179;28;20440;-64
2022/08/11 10:03:14;;;;;;;2.83;2.17;;;29.30;33.80;;;;;;5056451;28;20476;-64
2022/08/11 10:08:32;;;;;;;6.63;2.97;;;29.40;32.90;;;;;;5056210;28;20609;-65
2022/08/11 10:11:00;;;;;;;2.40;2.20;;;29.40;32.80;;;;;;5055444;28;20489;-64
2022/08/11 10:13:33;;;;;;;6.27;2.73;;;29.40;32.70;;;;;;5056059;28;20466;-65
2022/08/11 10:16:03;;;;;;;3.17;2.77;;;29.40;32.40;;;;;;5056259;28;20438;-64
2022/08/11 10:18:47;;;;;;;4.27;2.73;;;29.50;32.30;;;;;;5056822;28;20445;-66
2022/08/11 10:21:23;;;;;;;3.10;2.70;;;29.60;32.10;;;;;;5055863;28;20524;-64
2022/08/11 10:26:53;;;;;;;4.67;2.97;;;29.60;32.70;;;;;;5055800;28;20432;-65
2022/08/11 10:34:57;;;;;;;2.57;2.30;;;29.50;32.60;;;;;;5055368;28;20425;-64
2022/08/11 10:37:25;;;;;;;2.50;2.17;;;29.50;32.50;;;;;;5054692;28;20512;-64
2022/08/11 10:39:55;;;;;;;5.60;2.83;;;29.60;32.40;;;;;;5054714;28;20449;-64
2022/08/11 10:47:33;;;;;;;3.70;2.27;;;29.70;31.80;;;;;;5054922;28;20516;-64
2022/08/11 10:47:57;;;;;;;3.93;2.80;;;29.80;31.50;;;;;;5054442;28;20435;-65
2022/08/11 10:58:49;;;;;;;3.07;2.83;;;29.60;31.40;;;;;;5054406;28;20755;-63
2022/08/11 11:01:26;;;;;;;8.47;1.90;;;29.60;31.50;;;;;;5053874;28;20954;-61
2022/08/11 11:03:57;;;;;;;5.13;2.90;;;29.70;31.50;;;;;;5054711;28;20471;-64
2022/08/11 11:06:31;;;;;;;5.63;2.60;;;29.90;31.60;;;;;;5054330;28;20534;-63
2022/08/11 11:09:03;;;;;;;2.97;2.50;;;30.00;31.20;;;;;;5053937;28;20501;-62
2022/08/11 11:20:08;;;;;;;2.70;2.50;;;30.20;30.70;;;;;;5053625;28;20467;-64
2022/08/11 11:22:40;;;;;;;2.83;2.57;;;30.40;30.60;;;;;;5053139;28;20525;-64
2022/08/11 11:25:23;;;;;;;4.03;2.30;;;30.40;30.50;;;;;;5053687;28;20441;-64
2022/08/11 11:28:06;;;;;;;3.63;2.40;;;30.40;30.40;;;;;;5053212;28;20428;-64
2022/08/11 11:30:38;;;;;;;2.70;2.50;;;30.40;30.30;;;;;;5053701;28;20466;-64
2022/08/11 11:33:13;;;;;;;2.63;2.43;;;30.40;30.50;;;;;;5054222;28;20474;-64
2022/08/11 11:35:55;;;;;;;2.87;2.53;;;30.40;30.30;;;;;;5053680;28;20462;-65
2022/08/11 11:38:24;;;;;;;3.93;2.67;;;30.40;30.20;;;;;;5053279;28;20522;-65
2022/08/11 11:43:35;;;;;;;4.87;2.83;;;30.50;29.80;;;;;;5053236;28;20449;-64
2022/08/11 11:46:05;;;;;;;3.87;3.50;;;30.50;29.60;;;;;;5053758;28;20538;-65
2022/08/11 11:48:34;;;;;;;5.70;4.53;;;30.50;29.50;;;;;;5053623;28;20888;-65
2022/08/11 11:51:01;;;;;;;10.17;3.20;;;30.60;29.40;;;;;;5054046;28;20490;-63
2022/08/11 11:53:30;;;;;;;3.50;2.23;;;30.80;29.10;;;;;;5053893;28;20469;-65
2022/08/11 11:55:59;;;;;;;3.40;2.27;;;31.10;28.60;;;;;;5054224;28;20440;-62
2022/08/11 12:01:16;;;;;;;6.20;4.93;;;32.20;27.50;;;;;;5052894;28;20406;-65
2022/08/11 12:03:46;;;;;;;8.63;6.70;;;32.80;27.00;;;;;;5053995;28;20506;-62
2022/08/11 12:06:14;;;;;;;3.20;2.43;;;33.10;26.50;;;;;;5053886;28;20438;-65
2022/08/11 12:08:44;;;;;;;2.20;2.00;;;33.30;26.20;;;;;;5053082;28;20494;-63
2022/08/11 12:14:00;;;;;;;3.57;2.50;;;33.60;25.90;;;;;;5057113;28;20415;-63
2022/08/11 12:16:28;;;;;;;2.40;2.20;;;33.90;25.70;;;;;;5059731;28;20489;-64
2022/08/11 12:18:58;;;;;;;2.93;2.63;;;34.20;25.30;;;;;;5055276;28;20961;-65
2022/08/11 12:21:27;;;;;;;3.67;2.40;;;34.20;25.20;;;;;;5053660;28;20470;-66
2022/08/11 12:29:29;;;;;;;3.70;2.27;;;34.30;25.30;;;;;;5053005;28;20423;-60
2022/08/11 12:31:57;;;;;;;5.97;2.50;;;34.30;25.20;;;;;;5058474;28;20870;-60
2022/08/11 12:34:27;;;;;;;2.70;2.50;;;34.10;25.40;;;;;;5057811;28;20473;-61
2022/08/11 12:36:58;;;;;;;3.70;2.93;;;33.80;25.40;;;;;;5058215;28;20426;-60
2022/08/11 12:53:27;;;;;;;2.80;2.50;;;31.80;26.60;;;;;;5058194;28;21018;-58
2022/08/11 12:58:46;;;;;;;3.33;2.57;;;31.60;27.10;;;;;;5057476;28;20415;-58
2022/08/11 13:06:44;;;;;;;3.60;2.40;;;31.50;27.00;;;;;;5057265;28;20435;-59
2022/08/11 13:09:12;;;;;;;2.83;2.23;;;31.50;26.90;;;;;;5057279;28;20461;-58
2022/08/11 13:14:28;;;;;;;5.13;3.37;;;31.50;26.90;;;;;;5057143;28;20604;-58
2022/08/11 13:19:43;;;;;;;3.20;2.47;;;31.60;26.90;;;;;;5057166;28;20502;-59
2022/08/11 13:22:12;;;;;;;3.60;2.30;;;31.70;27.00;;;;;;5057462;28;20467;-59
2022/08/11 13:24:40;;;;;;;4.87;2.47;;;31.80;26.90;;;;;;5056596;28;20465;-58
2022/08/11 13:27:11;;;;;;;2.47;2.03;;;31.70;26.60;;;;;;5056594;28;20473;-59
2022/08/11 13:29:41;;;;;;;4.90;2.30;;;31.70;26.20;;;;;;5056710;28;20428;-60
2022/08/11 13:32:10;;;;;;;3.50;2.40;;;31.70;25.80;;;;;;5057665;28;20486;-59
2022/08/11 13:34:40;;;;;;;3.50;2.50;;;31.60;25.60;;;;;;5057492;28;20448;-60
2022/08/11 13:37:10;;;;;;;4.20;2.43;;;31.60;25.60;;;;;;5056576;28;20565;-59
2022/08/11 13:39:42;;;;;;;5.33;2.40;;;31.50;25.70;;;;;;5055936;28;20422;-60
2022/08/11 13:42:12;;;;;;;2.40;1.90;;;31.40;25.70;;;;;;5057531;28;20869;-57
2022/08/11 13:44:41;;;;;;;3.00;2.47;;;31.40;25.90;;;;;;5056403;28;20493;-59
2022/08/11 13:47:12;;;;;;;5.50;2.00;;;31.40;25.90;;;;;;5056052;28;20467;-60
2022/08/11 13:49:41;;;;;;;7.40;2.43;;;31.50;25.90;;;;;;5056819;28;20453;-59
2022/08/11 13:52:12;;;;;;;2.27;2.07;;;31.60;25.80;;;;;;5056302;28;20491;-62
2022/08/11 13:54:41;;;;;;;7.20;2.20;;;31.60;25.50;;;;;;5055844;28;20492;-59
2022/08/11 13:57:11;;;;;;;3.20;2.00;;;31.50;25.50;;;;;;5056105;28;20504;-59
2022/08/11 13:59:40;;;;;;;4.67;1.87;;;31.50;25.70;;;;;;5055873;28;20455;-59
2022/08/11 14:02:13;;;;;;;3.10;2.80;;;31.50;25.70;;;;;;5053544;28;20511;-57
2022/08/11 14:04:43;;;;;;;3.30;2.23;;;31.50;25.70;;;;;;5056107;28;20427;-57
2022/08/11 14:07:14;;;;;;;2.60;2.40;;;31.60;25.70;;;;;;5053991;28;20450;-61
2022/08/11 14:09:45;;;;;;;5.53;2.47;;;31.60;25.40;;;;;;5035758;28;20458;-56
2022/08/11 14:15:10;;;;;;;4.03;2.10;;;31.70;25.40;;;;;;5036336;28;20466;-60
2022/08/11 14:17:40;;;;;;;2.43;1.87;;;31.80;25.50;;;;;;5053152;28;20461;-60
2022/08/11 14:20:10;;;;;;;2.60;2.40;;;31.80;25.50;;;;;;5054284;28;20479;-59
2022/08/11 14:22:40;;;;;;;3.87;2.03;;;31.80;25.50;;;;;;5047191;28;20561;-60
2022/08/11 14:25:08;;;;;;;4.30;2.47;;;31.80;25.70;;;;;;5049886;28;20458;-60
2022/08/11 14:27:36;;;;;;;2.60;2.10;;;31.80;25.80;;;;;;5052782;28;20521;-61
2022/08/11 14:30:53;;;;;;;4.63;2.50;;;31.80;25.70;;;;;;5037053;28;20479;-61
2022/08/11 14:32:54;;;;;;;3.33;2.40;;;31.70;25.70;;;;;;5045288;28;20547;-58
2022/08/11 14:35:21;;;;;;;3.50;2.37;;;31.50;25.70;;;;;;5058721;28;20498;-60
2022/08/11 14:37:49;;;;;;;2.53;2.20;;;31.50;25.90;;;;;;5058286;28;20449;-58
2022/08/11 14:48:31;;;;;;;2.87;2.50;;;31.40;26.10;;;;;;5054295;28;20599;-62
2022/08/11 14:51:00;;;;;;;4.53;2.33;;;31.40;26.10;;;;;;5051966;28;20485;-60
2022/08/11 14:53:27;;;;;;;6.27;2.20;;;31.40;26.10;;;;;;5053746;28;20570;-60
2022/08/11 14:58:40;;;;;;;2.80;2.50;;;31.30;26.20;;;;;;5042854;28;20426;-61
2022/08/11 15:03:52;;;;;;;2.93;2.57;;;31.40;26.30;;;;;;5035529;28;21055;-59
2022/08/11 15:06:19;;;;;;;3.63;2.10;;;31.40;26.20;;;;;;5052435;28;20449;-60
2022/08/11 15:08:56;;;;;;;2.53;2.33;;;31.40;26.30;;;;;;5043045;28;20501;-59
2022/08/11 15:14:12;;;;;;;4.30;2.20;;;31.40;26.50;;;;;;5057085;28;20461;-59
2022/08/11 15:19:32;;;;;;;4.00;2.10;;;31.40;26.70;;;;;;5055674;28;20410;-61
2022/08/11 15:24:55;;;;;;;3.27;2.53;;;31.40;26.80;;;;;;4973215;28;20453;-61
2022/08/11 15:38:35;;;;;;;2.53;2.33;;;31.20;27.00;;;;;;5043228;28;20474;-59
2022/08/11 15:46:42;;;;;;;3.90;2.70;;;31.20;27.00;;;;;;5053476;28;20430;-58
2022/08/11 15:49:13;;;;;;;2.67;2.27;;;31.30;27.00;;;;;;5053960;28;20893;-59
2022/08/11 15:51:45;;;;;;;2.33;2.07;;;31.20;26.90;;;;;;5054062;28;20569;-60
2022/08/11 15:54:17;;;;;;;3.80;3.50;;;31.20;26.90;;;;;;5053949;28;20440;-60
2022/08/11 15:56:47;;;;;;;2.17;1.97;;;31.20;26.60;;;;;;5043837;28;20922;-58
2022/08/11 16:04:55;;;;;;;3.00;2.60;;;31.20;26.30;;;;;;4986898;28;20776;-60
2022/08/11 16:07:26;;;;;;;3.40;2.60;;;31.20;26.30;;;;;;5043542;28;20458;-60
2022/08/11 16:09:59;;;;;;;2.80;2.60;;;31.30;26.20;;;;;;5052001;28;20481;-60
2022/08/11 16:12:31;;;;;;;4.27;3.10;;;31.50;26.10;;;;;;5052924;28;20505;-58
2022/08/11 16:17:50;;;;;;;2.47;2.27;;;32.10;25.70;;;;;;5054479;28;20441;-59
2022/08/11 16:20:22;;;;;;;3.13;2.23;;;32.30;25.70;;;;;;5049630;28;20543;-59
2022/08/11 16:22:54;;;;;;;3.00;2.20;;;32.20;25.60;;;;;;5058514;28;20463;-58
2022/08/11 16:25:23;;;;;;;3.77;2.97;;;32.00;25.50;;;;;;5057693;28;20814;-60
2022/08/11 16:27:53;;;;;;;2.63;2.43;;;31.80;25.60;;;;;;5057157;28;20460;-60
2022/08/11 16:30:21;;;;;;;4.77;2.30;;;31.70;25.80;;;;;;5053805;28;20424;-60
2022/08/11 16:32:51;;;;;;;3.20;2.80;;;31.60;25.80;;;;;;5053934;28;21008;-58
2022/08/11 16:40:58;;;;;;;4.57;2.10;;;31.80;25.20;;;;;;5053423;28;20483;-59
2022/08/11 16:49:02;;;;;;;2.57;2.37;;;34.20;23.50;;;;;;5040619;28;20439;-60
2022/08/11 16:51:31;;;;;;;3.07;2.70;;;34.80;23.00;;;;;;5057253;28;20479;-60
2022/08/11 16:53:59;;;;;;;6.50;2.30;;;35.10;22.60;;;;;;5058108;28;20460;-60
2022/08/11 16:56:32;;;;;;;4.30;2.70;;;35.40;22.40;;;;;;5059042;28;20766;-60
2022/08/11 16:59:15;;;;;;;3.73;2.50;;;35.80;22.20;;;;;;5057905;28;20421;-59
2022/08/11 17:01:51;;;;;;;2.30;2.10;;;36.20;21.90;;;;;;5056275;28;20460;-60
2022/08/11 17:13:09;;;;;;;4.60;2.37;;;36.70;21.50;;;;;;5055250;28;20494;-58
2022/08/11 17:18:42;;;;;;;3.00;2.20;;;36.40;21.90;;;;;;5057366;28;20412;-60
2022/08/11 17:21:12;;;;;;;4.20;2.40;;;36.50;21.80;;;;;;5057384;28;20919;-57
2022/08/11 17:23:48;;;;;;;3.47;2.60;;;36.20;21.80;;;;;;5057719;28;20530;-60
2022/08/11 17:26:53;;;;;;;2.67;2.47;;;35.90;21.90;;;;;;5057784;28;20513;-59
2022/08/11 17:29:20;;;;;;;3.93;2.73;;;35.70;22.10;;;;;;5058031;28;20443;-60
2022/08/11 17:37:21;;;;;;;2.70;2.50;;;35.60;22.90;;;;;;5045324;28;20413;-59
2022/08/11 17:39:50;;;;;;;2.80;2.60;;;35.70;22.80;;;;;;5057943;28;20486;-60
2022/08/11 17:50:46;;;;;;;2.80;2.60;;;33.00;24.80;;;;;;5058658;28;20429;-59
2022/08/11 18:01:36;;;;;;;4.50;2.67;;;30.50;26.90;;;;;;5035481;28;20799;-59
2022/08/11 18:04:06;;;;;;;5.60;2.40;;;30.30;27.30;;;;;;5040927;28;20539;-60
2022/08/11 18:06:36;;;;;;;2.83;2.40;;;30.10;27.50;;;;;;5055611;28;20899;-60
